Time;durP1;ratioP1;P1;durP2;ratioP2;P2;SDS_P1;SDS_P2;PMS_P1;PMS_P2;Temp;Humidity;BMP_temperature;BMP_pressure;BME280_temperature;BME280_humidity;BME280_pressure;Samples;Min_cycle;Max_cycle;Signal;HPM_P1;HPM_P2
2021/09/21 00:01:06;;;;;;;5.28;3.50;;;12.50;70.90;;;;;;5053964;28;20028;-47
2021/09/21 00:03:33;;;;;;;7.22;3.03;;;12.40;71.40;;;;;;5053912;28;20503;-48
2021/09/21 00:05:59;;;;;;;5.78;3.60;;;12.40;71.20;;;;;;5053907;28;20453;-46
2021/09/21 00:08:27;;;;;;;10.05;4.07;;;12.50;70.90;;;;;;5053802;28;20021;-48
2021/09/21 00:10:57;;;;;;;9.13;3.75;;;12.50;70.90;;;;;;5053884;28;20199;-46
2021/09/21 00:13:23;;;;;;;5.32;3.13;;;12.50;71.30;;;;;;5054157;28;20388;-47
2021/09/21 00:15:49;;;;;;;3.30;2.80;;;12.60;71.00;;;;;;5053386;28;20104;-47
2021/09/21 00:18:14;;;;;;;5.65;3.47;;;12.60;71.00;;;;;;5053395;28;20057;-47
2021/09/21 00:20:40;;;;;;;4.43;2.92;;;12.50;71.50;;;;;;5053489;28;20036;-52
2021/09/21 00:23:06;;;;;;;8.57;4.30;;;12.40;71.70;;;;;;5053256;28;20036;-48
2021/09/21 00:25:32;;;;;;;7.40;3.22;;;12.40;71.60;;;;;;5053348;28;20082;-48
2021/09/21 00:27:57;;;;;;;5.63;3.40;;;12.40;71.70;;;;;;5053798;28;20099;-47
2021/09/21 00:30:23;;;;;;;6.25;3.58;;;12.40;71.60;;;;;;5053639;28;20028;-52
2021/09/21 00:33:00;;;;;;;5.72;3.58;;;12.30;71.90;;;;;;5054075;28;20021;-48
2021/09/21 00:35:27;;;;;;;6.00;3.45;;;12.30;71.90;;;;;;5052880;28;20388;-46
2021/09/21 00:37:52;;;;;;;6.93;3.78;;;12.30;72.10;;;;;;5053346;28;20033;-47
2021/09/21 00:40:18;;;;;;;6.05;3.13;;;12.30;72.10;;;;;;5053323;28;20444;-47
2021/09/21 00:42:45;;;;;;;6.53;3.30;;;12.30;72.50;;;;;;5053080;28;20307;-47
2021/09/21 00:45:24;;;;;;;4.45;3.40;;;12.30;72.60;;;;;;5053106;28;20100;-46
2021/09/21 00:47:54;;;;;;;8.20;3.85;;;12.20;72.70;;;;;;5053431;28;20017;-47
2021/09/21 00:50:21;;;;;;;6.10;3.83;;;12.30;72.50;;;;;;5051879;28;20104;-47
2021/09/21 00:52:49;;;;;;;4.97;3.90;;;12.10;72.90;;;;;;5052719;28;20036;-47
2021/09/21 00:55:15;;;;;;;9.13;3.90;;;12.10;73.20;;;;;;5052777;28;20029;-47
2021/09/21 00:57:41;;;;;;;10.57;3.85;;;12.10;73.10;;;;;;5052705;28;20029;-47
2021/09/21 01:00:10;;;;;;;6.45;3.78;;;12.10;73.30;;;;;;5052441;28;20112;-47
2021/09/21 01:02:35;;;;;;;5.80;3.30;;;12.00;73.40;;;;;;5052191;28;20029;-48
2021/09/21 01:05:02;;;;;;;6.63;3.72;;;12.00;73.60;;;;;;5052373;28;20095;-47
2021/09/21 01:07:28;;;;;;;5.55;3.28;;;12.10;73.50;;;;;;5052201;28;20119;-49
2021/09/21 01:10:09;;;;;;;6.20;3.90;;;12.10;73.60;;;;;;5052598;28;20096;-48
2021/09/21 01:12:36;;;;;;;12.15;4.15;;;12.10;73.60;;;;;;5052227;28;20187;-48
2021/09/21 01:15:02;;;;;;;8.13;3.72;;;12.10;73.70;;;;;;5052145;28;20053;-47
2021/09/21 01:17:28;;;;;;;7.18;3.88;;;12.10;73.80;;;;;;5050599;28;20044;-48
2021/09/21 01:19:54;;;;;;;5.82;3.30;;;12.00;73.90;;;;;;5052195;28;20017;-47
2021/09/21 01:22:20;;;;;;;6.78;3.85;;;11.90;74.20;;;;;;5052427;28;20123;-47
2021/09/21 01:24:45;;;;;;;5.70;3.47;;;11.90;74.40;;;;;;5050752;28;20448;-49
2021/09/21 01:27:11;;;;;;;5.40;3.78;;;11.90;74.20;;;;;;5052032;28;20507;-48
2021/09/21 01:29:37;;;;;;;7.97;3.83;;;11.80;74.50;;;;;;5052234;28;20457;-49
2021/09/21 01:32:03;;;;;;;7.18;5.30;;;11.80;75.00;;;;;;5050569;28;20143;-49
2021/09/21 01:34:29;;;;;;;8.45;4.03;;;11.80;74.60;;;;;;5052039;28;20029;-46
2021/09/21 01:36:54;;;;;;;8.40;3.90;;;11.80;75.00;;;;;;5052202;28;20385;-49
2021/09/21 01:39:20;;;;;;;7.10;3.83;;;11.80;75.20;;;;;;5052430;28;20099;-47
2021/09/21 01:41:46;;;;;;;7.78;4.75;;;11.80;75.40;;;;;;5052206;28;20120;-50
2021/09/21 01:44:16;;;;;;;5.53;3.92;;;11.80;75.50;;;;;;5052323;28;20557;-48
2021/09/21 01:46:43;;;;;;;7.38;4.30;;;11.80;75.40;;;;;;5055130;28;20025;-47
2021/09/21 01:49:12;;;;;;;7.50;3.85;;;11.90;75.20;;;;;;5056174;28;20108;-47
2021/09/21 01:51:40;;;;;;;4.88;3.60;;;12.10;74.90;;;;;;5054785;28;20479;-50
2021/09/21 01:59:28;;;;;;;4.18;3.38;;;12.10;75.00;;;;;;5056069;28;20432;-50
2021/09/21 02:01:54;;;;;;;9.32;3.95;;;12.00;74.90;;;;;;5056076;28;20021;-47
2021/09/21 02:04:19;;;;;;;5.10;3.83;;;12.00;75.10;;;;;;5056678;28;20450;-49
2021/09/21 02:06:45;;;;;;;5.47;3.70;;;12.00;75.10;;;;;;5056002;28;20029;-47
2021/09/21 02:09:13;;;;;;;6.00;4.07;;;12.00;75.10;;;;;;5056019;28;20414;-52
2021/09/21 02:11:41;;;;;;;7.35;4.20;;;12.00;75.40;;;;;;5055720;28;20473;-48
2021/09/21 02:14:10;;;;;;;5.22;3.85;;;12.00;75.50;;;;;;5055867;28;20480;-50
2021/09/21 02:16:36;;;;;;;6.70;4.05;;;11.80;75.80;;;;;;5055863;28;20021;-47
2021/09/21 02:19:02;;;;;;;8.23;4.32;;;12.00;75.60;;;;;;5055382;28;20053;-49
2021/09/21 02:21:27;;;;;;;7.40;4.40;;;11.90;75.90;;;;;;5055612;28;20021;-48
2021/09/21 02:23:55;;;;;;;8.25;4.20;;;11.90;75.90;;;;;;5055783;28;20055;-50
2021/09/21 02:26:21;;;;;;;7.70;4.30;;;11.80;76.20;;;;;;5055444;28;20028;-47
2021/09/21 02:28:47;;;;;;;7.13;4.38;;;11.80;76.40;;;;;;5055554;28;20101;-51
2021/09/21 02:31:13;;;;;;;7.53;4.30;;;11.80;76.60;;;;;;5055262;28;20133;-48
2021/09/21 02:33:39;;;;;;;7.88;4.38;;;11.70;76.90;;;;;;5055196;28;20389;-48
2021/09/21 02:36:06;;;;;;;8.43;3.95;;;11.60;77.20;;;;;;5055315;28;20025;-48
2021/09/21 02:38:36;;;;;;;7.30;4.07;;;11.50;77.50;;;;;;5053895;28;20025;-50
2021/09/21 02:41:03;;;;;;;6.80;4.40;;;11.40;77.90;;;;;;5055378;28;20025;-47
2021/09/21 02:43:28;;;;;;;7.38;3.95;;;11.40;78.10;;;;;;5055034;28;20056;-50
2021/09/21 02:45:56;;;;;;;5.85;3.67;;;11.40;78.20;;;;;;5055343;28;20025;-47
2021/09/21 02:48:21;;;;;;;7.10;4.38;;;11.30;78.40;;;;;;5055052;28;20032;-48
2021/09/21 02:50:47;;;;;;;8.05;4.90;;;11.30;78.70;;;;;;5055019;28;20330;-47
2021/09/21 02:53:17;;;;;;;6.47;4.22;;;11.30;79.00;;;;;;5055006;28;20024;-47
2021/09/21 02:55:42;;;;;;;9.70;5.22;;;11.20;79.20;;;;;;5055270;28;20029;-50
2021/09/21 02:58:08;;;;;;;6.07;4.30;;;11.20;79.40;;;;;;5054301;28;20104;-46
2021/09/21 03:00:34;;;;;;;6.63;4.57;;;11.10;79.80;;;;;;5053480;28;20461;-48
2021/09/21 03:03:02;;;;;;;10.27;5.18;;;11.10;80.00;;;;;;5053504;28;20025;-47
2021/09/21 03:05:32;;;;;;;9.65;5.30;;;11.00;80.20;;;;;;5055056;28;20036;-47
2021/09/21 03:08:02;;;;;;;5.67;4.30;;;11.00;80.40;;;;;;5054987;28;20021;-49
2021/09/21 03:10:44;;;;;;;9.77;5.18;;;10.90;80.50;;;;;;5054731;28;20104;-47
2021/09/21 03:13:26;;;;;;;6.85;4.53;;;10.80;80.70;;;;;;5055753;28;20040;-48
2021/09/21 03:18:36;;;;;;;9.20;5.35;;;10.80;81.20;;;;;;5054623;28;20106;-50
2021/09/21 03:21:01;;;;;;;8.63;5.05;;;10.80;80.90;;;;;;5054860;28;20111;-50
2021/09/21 03:23:28;;;;;;;8.65;5.47;;;10.80;81.00;;;;;;5054564;28;20536;-50
2021/09/21 03:25:53;;;;;;;9.95;5.53;;;10.80;81.20;;;;;;5054717;28;20056;-47
2021/09/21 03:28:19;;;;;;;7.88;5.00;;;10.80;81.40;;;;;;5054402;28;20036;-46
2021/09/21 03:30:45;;;;;;;11.48;5.72;;;10.70;81.60;;;;;;5054372;28;20021;-46
2021/09/21 03:33:11;;;;;;;10.52;5.07;;;10.70;81.80;;;;;;5052887;28;20036;-47
2021/09/21 03:35:36;;;;;;;7.13;5.22;;;10.60;81.80;;;;;;5054186;28;20104;-47
2021/09/21 03:38:03;;;;;;;8.35;5.32;;;10.50;82.00;;;;;;5054017;28;20032;-46
2021/09/21 03:40:28;;;;;;;9.13;5.78;;;10.50;82.10;;;;;;5053782;28;20538;-46
2021/09/21 03:42:54;;;;;;;11.07;5.25;;;10.60;81.90;;;;;;5054053;28;20024;-48
2021/09/21 03:45:21;;;;;;;9.50;5.97;;;10.60;82.00;;;;;;5053688;28;20021;-48
2021/09/21 03:47:47;;;;;;;8.60;5.88;;;10.60;82.00;;;;;;5054014;28;20033;-47
2021/09/21 03:50:13;;;;;;;10.93;5.15;;;10.70;82.00;;;;;;5053693;28;20457;-46
2021/09/21 03:52:38;;;;;;;9.35;5.80;;;10.50;81.70;;;;;;5053647;28;20032;-50
2021/09/21 03:55:04;;;;;;;8.73;5.30;;;10.40;82.10;;;;;;5052221;28;20072;-48
2021/09/21 03:57:31;;;;;;;9.05;6.20;;;;;;;;;;5053471;28;20021;-46
2021/09/21 03:59:57;;;;;;;12.73;6.00;;;10.30;82.70;;;;;;5053515;28;20021;-49
2021/09/21 04:02:23;;;;;;;14.65;6.35;;;10.30;83.10;;;;;;5053706;28;20033;-46
2021/09/21 04:04:48;;;;;;;10.20;6.32;;;10.30;83.20;;;;;;5052088;28;20556;-47
2021/09/21 04:07:14;;;;;;;11.25;6.82;;;10.40;82.70;;;;;;5035539;28;20492;-51
2021/09/21 04:09:40;;;;;;;7.72;5.90;;;10.30;82.90;;;;;;5052584;28;20020;-49
2021/09/21 04:12:06;;;;;;;7.65;5.50;;;10.20;83.10;;;;;;5053420;28;20032;-49
2021/09/21 04:14:33;;;;;;;16.00;6.85;;;10.20;83.40;;;;;;5053649;28;20051;-48
2021/09/21 04:16:59;;;;;;;8.02;5.75;;;10.20;83.30;;;;;;5051827;28;20024;-46
2021/09/21 04:19:24;;;;;;;10.32;6.10;;;10.10;83.50;;;;;;5051602;28;20041;-49
2021/09/21 04:21:50;;;;;;;10.82;5.93;;;10.10;83.70;;;;;;5053249;28;20389;-49
2021/09/21 04:24:16;;;;;;;11.70;6.05;;;10.10;83.90;;;;;;5051813;28;20025;-46
2021/09/21 04:26:41;;;;;;;9.57;6.20;;;10.10;84.00;;;;;;5053771;28;20021;-48
2021/09/21 04:29:08;;;;;;;11.85;6.63;;;10.00;84.10;;;;;;5053067;28;20477;-48
2021/09/21 04:31:35;;;;;;;11.60;6.78;;;10.00;84.30;;;;;;5053405;28;20029;-48
2021/09/21 04:34:00;;;;;;;8.98;5.65;;;10.00;84.30;;;;;;5053175;28;20489;-48
2021/09/21 04:36:26;;;;;;;13.02;6.13;;;9.90;84.40;;;;;;5053049;28;20029;-48
2021/09/21 04:38:52;;;;;;;11.52;7.18;;;10.00;84.50;;;;;;5052927;28;20036;-50
2021/09/21 04:41:18;;;;;;;13.70;6.10;;;10.00;84.40;;;;;;5051728;28;20082;-48
2021/09/21 04:43:44;;;;;;;11.52;7.28;;;10.00;84.50;;;;;;5053456;28;20055;-47
2021/09/21 04:46:10;;;;;;;11.57;6.53;;;9.90;84.60;;;;;;5053000;28;20021;-51
2021/09/21 04:48:36;;;;;;;9.10;5.85;;;9.90;84.60;;;;;;5053357;28;20381;-50
2021/09/21 04:51:03;;;;;;;11.27;7.25;;;9.90;84.70;;;;;;5053019;28;20043;-50
2021/09/21 04:53:29;;;;;;;11.68;6.93;;;9.80;84.70;;;;;;5053032;28;20024;-48
2021/09/21 04:55:54;;;;;;;11.75;6.45;;;9.80;84.80;;;;;;5052754;28;20112;-49
2021/09/21 04:58:20;;;;;;;11.65;6.40;;;9.80;85.00;;;;;;5053130;28;20429;-48
2021/09/21 05:00:46;;;;;;;10.73;5.95;;;9.80;85.00;;;;;;5052735;28;20029;-48
2021/09/21 05:03:12;;;;;;;8.95;5.72;;;9.70;84.80;;;;;;5051327;28;20032;-52
2021/09/21 05:05:37;;;;;;;9.02;5.57;;;9.60;85.20;;;;;;5052591;28;20116;-48
2021/09/21 05:08:03;;;;;;;10.00;6.63;;;9.60;85.50;;;;;;5053525;28;20029;-50
2021/09/21 05:10:31;;;;;;;12.77;8.43;;;9.50;85.70;;;;;;5052767;28;20349;-47
2021/09/21 05:12:58;;;;;;;9.60;6.65;;;9.50;85.90;;;;;;5052849;28;20036;-48
2021/09/21 05:15:24;;;;;;;12.35;6.40;;;9.50;86.00;;;;;;5052818;28;20155;-48
2021/09/21 05:17:50;;;;;;;10.68;6.95;;;9.50;86.00;;;;;;5052477;28;20543;-49
2021/09/21 05:20:15;;;;;;;9.05;5.65;;;9.40;85.80;;;;;;5051990;28;20025;-47
2021/09/21 05:22:41;;;;;;;11.60;6.32;;;9.30;85.70;;;;;;5052343;28;20089;-47
2021/09/21 05:25:07;;;;;;;12.88;6.95;;;9.30;85.90;;;;;;5052133;28;20021;-50
2021/09/21 05:27:33;;;;;;;10.93;5.75;;;9.30;86.10;;;;;;5052221;28;20372;-50
2021/09/21 05:29:59;;;;;;;12.63;6.25;;;9.30;85.80;;;;;;5052460;28;20032;-51
2021/09/21 05:32:24;;;;;;;10.30;6.18;;;9.30;86.00;;;;;;5052757;28;20021;-49
2021/09/21 05:34:50;;;;;;;8.82;6.13;;;9.20;86.30;;;;;;5052633;28;20035;-51
2021/09/21 05:37:16;;;;;;;8.00;5.72;;;9.10;86.30;;;;;;5052625;28;20025;-48
2021/09/21 05:39:41;;;;;;;10.43;6.03;;;9.10;86.40;;;;;;5051390;28;20479;-47
2021/09/21 05:42:07;;;;;;;12.90;6.82;;;9.20;86.40;;;;;;5052243;28;20079;-52
2021/09/21 05:44:33;;;;;;;8.77;6.03;;;9.30;86.10;;;;;;5052326;28;20021;-48
2021/09/21 05:46:58;;;;;;;11.77;6.80;;;9.30;86.20;;;;;;5052462;28;20064;-48
2021/09/21 05:49:24;;;;;;;12.48;6.45;;;9.30;86.00;;;;;;5052266;28;20397;-47
2021/09/21 05:51:50;;;;;;;11.55;6.38;;;9.30;86.10;;;;;;5051927;28;20021;-47
2021/09/21 05:54:16;;;;;;;11.02;5.75;;;9.40;86.10;;;;;;5051752;28;20469;-47
2021/09/21 05:56:41;;;;;;;10.52;6.60;;;9.50;85.50;;;;;;5051938;28;20548;-47
2021/09/21 05:59:07;;;;;;;14.27;6.22;;;9.50;85.40;;;;;;5051875;28;20035;-47
2021/09/21 06:01:35;;;;;;;10.30;6.00;;;9.60;85.30;;;;;;5052188;28;20029;-50
2021/09/21 06:04:02;;;;;;;12.30;6.97;;;9.60;85.20;;;;;;5052029;28;20035;-49
2021/09/21 06:06:27;;;;;;;10.90;6.15;;;9.70;85.50;;;;;;5050976;28;20025;-48
2021/09/21 06:08:53;;;;;;;9.48;6.78;;;9.70;85.30;;;;;;5052501;28;20028;-50
2021/09/21 06:11:27;;;;;;;12.60;7.28;;;9.80;85.20;;;;;;5052795;28;20017;-48
2021/09/21 06:13:55;;;;;;;9.60;6.65;;;9.80;84.90;;;;;;5051844;28;20047;-49
2021/09/21 06:16:22;;;;;;;13.85;7.40;;;9.80;84.90;;;;;;5051768;28;20028;-49
2021/09/21 06:18:47;;;;;;;13.05;7.80;;;9.90;84.60;;;;;;5051786;28;20057;-50
2021/09/21 06:21:13;;;;;;;16.13;7.53;;;9.90;84.50;;;;;;5052013;28;20074;-49
2021/09/21 06:23:39;;;;;;;13.35;8.07;;;10.10;84.50;;;;;;5052252;28;20410;-49
2021/09/21 06:26:04;;;;;;;14.63;8.93;;;10.10;84.20;;;;;;5052071;28;20025;-52
2021/09/21 06:28:30;;;;;;;13.50;7.80;;;10.10;84.20;;;;;;5050592;28;20032;-47
2021/09/21 06:30:56;;;;;;;13.70;8.48;;;10.20;84.20;;;;;;5051305;28;20131;-50
2021/09/21 06:33:21;;;;;;;15.38;8.80;;;10.30;83.90;;;;;;5052898;28;20024;-47
2021/09/21 06:35:47;;;;;;;15.77;8.20;;;10.30;83.80;;;;;;5055310;28;20513;-47
2021/09/21 06:38:13;;;;;;;10.55;7.63;;;10.40;83.60;;;;;;5055236;28;20025;-49
2021/09/21 06:40:39;;;;;;;17.45;8.77;;;10.50;83.30;;;;;;5054990;28;20047;-49
2021/09/21 06:43:04;;;;;;;17.92;9.40;;;10.60;83.10;;;;;;5055158;28;20029;-49
2021/09/21 06:45:30;;;;;;;11.45;8.32;;;10.70;82.70;;;;;;5054834;28;20066;-49
2021/09/21 06:47:56;;;;;;;18.30;8.27;;;10.80;82.30;;;;;;5055166;28;20358;-48
2021/09/21 06:50:21;;;;;;;16.13;8.50;;;10.80;82.00;;;;;;5052934;28;20055;-51
2021/09/21 06:52:47;;;;;;;14.52;8.43;;;10.80;82.30;;;;;;5053265;28;20506;-47
2021/09/21 06:55:13;;;;;;;15.05;8.77;;;10.80;82.30;;;;;;5054742;28;20087;-47
2021/09/21 06:57:39;;;;;;;11.23;8.07;;;10.90;82.00;;;;;;5054619;28;20465;-47
2021/09/21 07:00:08;;;;;;;13.50;9.45;;;10.90;81.70;;;;;;5055243;28;20090;-47
2021/09/21 07:02:34;;;;;;;18.88;8.20;;;11.10;81.70;;;;;;5055007;28;20016;-48
2021/09/21 07:05:00;;;;;;;17.90;9.30;;;11.30;80.90;;;;;;5054834;28;20017;-47
2021/09/21 07:07:25;;;;;;;25.25;10.00;;;11.40;80.20;;;;;;5055423;28;20036;-48
2021/09/21 07:09:51;;;;;;;16.92;9.25;;;11.50;79.90;;;;;;5054577;28;20033;-52
2021/09/21 07:12:17;;;;;;;12.82;9.00;;;11.60;79.80;;;;;;5055042;28;20070;-50
2021/09/21 07:14:42;;;;;;;19.98;9.05;;;11.80;79.50;;;;;;5054631;28;20021;-50
2021/09/21 07:17:08;;;;;;;18.17;8.60;;;11.80;78.80;;;;;;5054209;28;20048;-49
2021/09/21 07:19:33;;;;;;;17.42;8.93;;;12.00;78.80;;;;;;5054487;28;20036;-51
2021/09/21 07:21:59;;;;;;;13.77;8.70;;;12.30;77.30;;;;;;5055039;28;20358;-50
2021/09/21 07:24:25;;;;;;;13.95;9.07;;;12.40;77.00;;;;;;5054288;28;20040;-51
2021/09/21 07:26:50;;;;;;;15.45;8.07;;;12.50;76.60;;;;;;5055221;28;20025;-47
2021/09/21 07:29:17;;;;;;;13.32;8.93;;;12.80;75.70;;;;;;5054587;28;20116;-49
2021/09/21 07:31:43;;;;;;;16.05;10.27;;;12.90;74.50;;;;;;5054410;28;20032;-48
2021/09/21 07:34:09;;;;;;;14.32;9.63;;;12.90;74.70;;;;;;5054134;28;20029;-47
2021/09/21 07:36:35;;;;;;;14.05;9.52;;;13.10;74.30;;;;;;5054114;28;20473;-47
2021/09/21 07:39:02;;;;;;;14.70;9.40;;;13.30;73.20;;;;;;5053701;28;20079;-49
2021/09/21 07:41:28;;;;;;;18.10;10.40;;;13.30;72.80;;;;;;5054057;28;20032;-50
2021/09/21 07:43:53;;;;;;;22.73;10.65;;;13.80;71.10;;;;;;5054116;28;20523;-49
2021/09/21 07:46:19;;;;;;;18.63;10.73;;;14.00;69.80;;;;;;5052417;28;20139;-49
2021/09/21 07:48:45;;;;;;;16.20;10.15;;;14.10;69.50;;;;;;5052311;28;20025;-48
2021/09/21 07:51:10;;;;;;;15.98;9.57;;;13.90;70.60;;;;;;5054067;28;20326;-48
2021/09/21 07:53:36;;;;;;;18.42;8.80;;;13.90;70.50;;;;;;5055009;28;20033;-48
2021/09/21 07:56:03;;;;;;;12.02;8.68;;;14.10;70.10;;;;;;5054204;28;20032;-48
2021/09/21 07:58:30;;;;;;;19.20;9.40;;;14.20;69.90;;;;;;5053985;28;20507;-50
2021/09/21 08:00:56;;;;;;;14.70;9.40;;;14.40;68.90;;;;;;5052409;28;20040;-51
2021/09/21 08:03:22;;;;;;;12.95;9.20;;;14.40;68.50;;;;;;5053548;28;20075;-52
2021/09/21 08:05:48;;;;;;;19.08;8.32;;;14.20;69.00;;;;;;5054012;28;20071;-49
2021/09/21 08:08:17;;;;;;;18.27;9.93;;;14.70;68.10;;;;;;5053931;28;20028;-50
2021/09/21 08:10:44;;;;;;;19.10;10.77;;;15.00;66.60;;;;;;5051915;28;20109;-49
2021/09/21 08:13:10;;;;;;;13.77;9.40;;;15.30;65.40;;;;;;5053137;28;20111;-50
2021/09/21 08:15:36;;;;;;;16.95;9.75;;;15.60;64.60;;;;;;5053185;28;20099;-48
2021/09/21 08:18:02;;;;;;;17.48;10.32;;;15.70;64.60;;;;;;5052706;28;20562;-51
2021/09/21 08:20:29;;;;;;;16.38;10.07;;;16.20;62.20;;;;;;5052769;28;20100;-51
2021/09/21 08:22:55;;;;;;;20.98;10.35;;;16.20;62.10;;;;;;5051242;28;20024;-48
2021/09/21 08:25:21;;;;;;;19.05;10.00;;;16.20;62.40;;;;;;5052213;28;20017;-51
2021/09/21 08:27:47;;;;;;;14.82;9.23;;;16.10;63.00;;;;;;5053214;28;20078;-50
2021/09/21 08:30:14;;;;;;;16.27;9.73;;;15.90;63.40;;;;;;5052671;28;20130;-50
2021/09/21 08:32:40;;;;;;;26.38;10.43;;;16.10;63.60;;;;;;5052331;28;20025;-50
2021/09/21 08:35:07;;;;;;;21.05;11.38;;;16.90;61.10;;;;;;5052359;28;20025;-49
2021/09/21 08:37:33;;;;;;;29.55;10.25;;;17.30;59.70;;;;;;5052650;28;20408;-48
2021/09/21 08:40:00;;;;;;;17.05;9.65;;;17.80;58.40;;;;;;5052770;28;20028;-49
2021/09/21 08:42:26;;;;;;;24.35;9.18;;;17.50;58.80;;;;;;5052871;28;20033;-50
2021/09/21 08:44:52;;;;;;;17.40;8.80;;;18.10;57.50;;;;;;5051300;28;20466;-53
2021/09/21 08:47:19;;;;;;;17.63;10.32;;;17.80;57.30;;;;;;5052225;28;20127;-47
2021/09/21 08:49:46;;;;;;;18.13;7.80;;;17.60;58.60;;;;;;5052498;28;20021;-49
2021/09/21 08:52:12;;;;;;;13.68;8.55;;;18.10;57.30;;;;;;5052614;28;20047;-49
2021/09/21 08:54:37;;;;;;;15.13;9.15;;;18.30;56.00;;;;;;5051503;28;20025;-50
2021/09/21 08:57:03;;;;;;;15.43;9.25;;;17.80;57.90;;;;;;5052492;28;20410;-50
2021/09/21 08:59:34;;;;;;;16.25;9.15;;;17.70;58.30;;;;;;5051345;28;20033;-49
2021/09/21 09:02:05;;;;;;;22.80;9.40;;;17.80;58.30;;;;;;5051303;28;20025;-50
2021/09/21 09:04:31;;;;;;;18.00;9.93;;;17.90;57.60;;;;;;5052241;28;20024;-47
2021/09/21 09:06:58;;;;;;;15.13;9.45;;;17.30;58.80;;;;;;5051526;28;20322;-48
2021/09/21 09:09:28;;;;;;;19.95;9.70;;;17.30;58.90;;;;;;5051997;28;20104;-53
2021/09/21 09:11:56;;;;;;;16.67;9.05;;;17.40;58.30;;;;;;5052686;28;20028;-49
2021/09/21 09:14:29;;;;;;;17.10;10.32;;;17.30;58.50;;;;;;5050812;28;20197;-51
2021/09/21 09:16:56;;;;;;;13.27;7.82;;;17.50;57.30;;;;;;5052123;28;20029;-50
2021/09/21 09:19:33;;;;;;;13.32;8.85;;;17.60;57.60;;;;;;5051841;28;20409;-48
2021/09/21 09:22:11;;;;;;;13.07;9.48;;;17.70;57.50;;;;;;5052234;28;20040;-50
2021/09/21 09:25:04;;;;;;;12.85;8.55;;;17.80;56.80;;;;;;5051947;28;20033;-50
2021/09/21 09:27:41;;;;;;;14.25;8.85;;;18.10;56.00;;;;;;5051287;28;20092;-48
2021/09/21 09:30:10;;;;;;;16.33;9.48;;;18.20;54.30;;;;;;5052212;28;20017;-51
2021/09/21 09:32:43;;;;;;;15.43;7.72;;;18.20;53.80;;;;;;5052228;28;20479;-49
2021/09/21 09:35:09;;;;;;;11.98;6.20;;;18.70;52.70;;;;;;5051644;28;20100;-50
2021/09/21 09:37:40;;;;;;;10.75;6.50;;;18.40;52.00;;;;;;5050486;28;20029;-48
2021/09/21 09:40:09;;;;;;;8.18;5.47;;;17.80;52.60;;;;;;5052373;28;20031;-48
2021/09/21 09:42:34;;;;;;;12.77;5.97;;;18.00;51.90;;;;;;5050525;28;20493;-49
2021/09/21 09:45:05;;;;;;;10.25;5.25;;;18.00;52.20;;;;;;5050183;28;20052;-48
2021/09/21 09:47:31;;;;;;;10.57;5.18;;;17.90;52.00;;;;;;5051858;28;20329;-53
2021/09/21 09:49:57;;;;;;;10.27;6.60;;;18.20;51.30;;;;;;5052409;28;20111;-51
2021/09/21 09:52:22;;;;;;;6.93;4.55;;;18.30;51.10;;;;;;5050559;28;20024;-53
2021/09/21 09:54:49;;;;;;;8.85;4.63;;;18.80;50.10;;;;;;5051599;28;20021;-49
2021/09/21 09:57:16;;;;;;;8.00;5.43;;;19.20;47.60;;;;;;5051845;28;20025;-50
2021/09/21 09:59:42;;;;;;;10.00;5.53;;;19.20;46.30;;;;;;5034368;28;20359;-49
2021/09/21 10:02:08;;;;;;;11.13;4.70;;;19.30;45.70;;;;;;5052341;28;20021;-51
2021/09/21 10:04:35;;;;;;;11.88;4.57;;;18.20;48.50;;;;;;5052055;28;20021;-51
2021/09/21 10:07:01;;;;;;;7.97;4.97;;;18.10;49.50;;;;;;5051969;28;20456;-52
2021/09/21 10:09:27;;;;;;;9.60;5.38;;;18.70;48.50;;;;;;5055647;28;20063;-53
2021/09/21 10:11:57;;;;;;;10.48;4.75;;;19.20;47.60;;;;;;5055896;28;20032;-51
2021/09/21 10:14:25;;;;;;;10.30;5.03;;;19.30;46.80;;;;;;5054346;28;20025;-52
2021/09/21 10:16:53;;;;;;;11.63;4.85;;;20.10;44.90;;;;;;5056125;28;20133;-50
2021/09/21 10:19:24;;;;;;;6.88;4.55;;;20.10;43.80;;;;;;5053508;28;20099;-49
2021/09/21 10:21:53;;;;;;;10.80;5.15;;;19.10;46.60;;;;;;5053805;28;20102;-52
2021/09/21 10:24:40;;;;;;;6.38;3.83;;;19.80;45.10;;;;;;5053614;28;20025;-48
2021/09/21 10:27:09;;;;;;;6.63;4.35;;;20.70;42.90;;;;;;5054894;28;20226;-49
2021/09/21 10:29:35;;;;;;;6.18;4.13;;;21.20;41.90;;;;;;5054919;28;20028;-49
2021/09/21 10:32:01;;;;;;;8.70;4.57;;;21.10;42.20;;;;;;5054502;28;20021;-50
2021/09/21 10:34:41;;;;;;;6.80;4.80;;;21.30;41.20;;;;;;5053080;28;20036;-50
2021/09/21 10:37:07;;;;;;;5.80;4.18;;;21.30;41.30;;;;;;5055020;28;20033;-50
2021/09/21 10:39:33;;;;;;;7.40;4.97;;;21.10;41.40;;;;;;5054804;28;20033;-48
2021/09/21 10:42:06;;;;;;;8.10;4.57;;;20.20;43.00;;;;;;5055348;28;20036;-51
2021/09/21 10:44:33;;;;;;;9.65;4.88;;;20.70;42.10;;;;;;5053751;28;20025;-49
2021/09/21 10:47:03;;;;;;;8.02;4.53;;;20.00;43.50;;;;;;5054903;28;20484;-53
2021/09/21 10:49:35;;;;;;;6.93;3.75;;;20.00;43.50;;;;;;5054994;28;20017;-51
2021/09/21 10:52:07;;;;;;;6.35;4.13;;;19.60;43.40;;;;;;5054782;28;20025;-49
2021/09/21 10:54:54;;;;;;;6.47;3.72;;;19.60;44.10;;;;;;5054347;28;20051;-48
2021/09/21 10:57:30;;;;;;;8.88;4.47;;;20.50;41.10;;;;;;5054232;28;20017;-48
2021/09/21 11:00:08;;;;;;;6.43;3.60;;;20.30;41.60;;;;;;5054866;28;20086;-48
2021/09/21 11:02:39;;;;;;;17.63;4.90;;;19.50;43.60;;;;;;5055583;28;20028;-48
2021/09/21 11:05:08;;;;;;;7.57;4.38;;;20.60;41.10;;;;;;5054913;28;20032;-47
2021/09/21 11:07:37;;;;;;;6.38;4.10;;;20.60;40.30;;;;;;5055472;28;20488;-49
2021/09/21 11:10:04;;;;;;;9.07;3.85;;;20.90;39.40;;;;;;5055033;28;20017;-50
2021/09/21 11:12:34;;;;;;;6.70;4.32;;;20.80;39.70;;;;;;5053253;28;20029;-48
2021/09/21 11:15:09;;;;;;;6.15;4.22;;;19.70;42.10;;;;;;5053155;28;20226;-49
2021/09/21 11:17:35;;;;;;;5.75;3.75;;;19.70;42.60;;;;;;5054962;28;20393;-49
2021/09/21 11:20:03;;;;;;;7.15;3.00;;;20.60;41.40;;;;;;5054021;28;20029;-47
2021/09/21 11:22:29;;;;;;;4.28;3.08;;;20.80;40.50;;;;;;5054086;28;20095;-48
2021/09/21 11:25:03;;;;;;;4.88;3.42;;;20.30;41.20;;;;;;5054900;28;20024;-48
2021/09/21 11:27:32;;;;;;;5.50;3.58;;;20.80;40.30;;;;;;5054408;28;20024;-49
2021/09/21 11:30:07;;;;;;;6.97;3.53;;;21.00;40.00;;;;;;5054209;28;20021;-49
2021/09/21 11:32:34;;;;;;;4.75;3.40;;;21.50;39.30;;;;;;5055182;28;20399;-49
2021/09/21 11:35:06;;;;;;;5.80;3.25;;;21.60;38.90;;;;;;5054538;28;20044;-48
2021/09/21 11:37:32;;;;;;;8.32;5.63;;;21.30;39.70;;;;;;5054301;28;20028;-48
2021/09/21 11:39:59;;;;;;;6.13;4.38;;;21.30;39.60;;;;;;5054337;28;20027;-49
2021/09/21 11:42:30;;;;;;;5.68;3.70;;;20.80;39.80;;;;;;5053617;28;20100;-53
2021/09/21 11:45:08;;;;;;;6.97;4.00;;;20.60;40.80;;;;;;5053927;28;20021;-52
2021/09/21 11:47:36;;;;;;;4.80;4.05;;;20.70;40.70;;;;;;5054242;28;20025;-49
2021/09/21 11:50:06;;;;;;;7.10;3.67;;;21.00;39.70;;;;;;5053733;28;20397;-48
2021/09/21 11:52:32;;;;;;;6.32;3.95;;;20.70;40.40;;;;;;5053606;28;20025;-49
2021/09/21 11:54:58;;;;;;;7.00;3.70;;;20.80;40.10;;;;;;5053248;28;20039;-49
2021/09/21 11:57:24;;;;;;;9.82;5.35;;;21.00;40.60;;;;;;5051934;28;20037;-52
2021/09/21 11:59:49;;;;;;;6.47;3.80;;;21.20;39.70;;;;;;5053276;28;20049;-49
2021/09/21 12:02:18;;;;;;;6.50;4.00;;;20.90;40.30;;;;;;5053177;28;20146;-50
2021/09/21 12:04:46;;;;;;;6.13;3.70;;;20.80;40.80;;;;;;5053414;28;20029;-50
2021/09/21 12:07:13;;;;;;;11.23;3.92;;;20.60;40.90;;;;;;5052952;28;20070;-47
2021/09/21 12:09:39;;;;;;;5.55;3.63;;;20.40;41.20;;;;;;5051460;28;20111;-47
2021/09/21 12:12:18;;;;;;;4.95;4.10;;;20.60;40.80;;;;;;5053049;28;20115;-49
2021/09/21 12:14:55;;;;;;;6.38;4.45;;;20.70;40.90;;;;;;5052986;28;20032;-49
2021/09/21 12:17:21;;;;;;;7.13;3.95;;;20.30;41.50;;;;;;5052909;28;20056;-48
2021/09/21 12:19:46;;;;;;;7.50;4.30;;;20.20;41.80;;;;;;5053117;28;20064;-53
2021/09/21 12:22:20;;;;;;;5.20;3.75;;;20.50;41.10;;;;;;5051745;28;20116;-52
2021/09/21 12:24:45;;;;;;;6.07;3.92;;;20.40;41.40;;;;;;5052914;28;20554;-48
2021/09/21 12:27:15;;;;;;;9.50;4.28;;;20.20;41.30;;;;;;5052928;28;20110;-53
2021/09/21 12:29:41;;;;;;;6.50;4.13;;;19.70;42.50;;;;;;5052643;28;20021;-50
2021/09/21 12:32:06;;;;;;;3.85;3.40;;;19.80;42.30;;;;;;5053084;28;20104;-49
2021/09/21 12:34:33;;;;;;;6.05;3.55;;;19.50;42.50;;;;;;5052887;28;20033;-50
2021/09/21 12:37:00;;;;;;;7.03;3.67;;;19.70;42.40;;;;;;5053064;28;20390;-52
2021/09/21 12:39:31;;;;;;;5.93;3.63;;;19.80;41.90;;;;;;5053074;28;20021;-49
2021/09/21 12:42:00;;;;;;;7.15;4.03;;;20.20;41.10;;;;;;5035569;28;20025;-50
2021/09/21 12:44:26;;;;;;;6.72;4.47;;;20.10;41.40;;;;;;5051230;28;20036;-48
2021/09/21 12:46:55;;;;;;;12.75;4.50;;;19.50;42.10;;;;;;5052620;28;20373;-49
2021/09/21 12:49:22;;;;;;;7.50;3.60;;;19.20;43.60;;;;;;5051594;28;20021;-49
2021/09/21 12:51:55;;;;;;;19.13;4.68;;;19.20;43.10;;;;;;5052563;28;20295;-48